Time;durP1;ratioP1;P1;durP2;ratioP2;P2;SDS_P1;SDS_P2;PMS_P1;PMS_P2;Temp;Humidity;BMP_temperature;BMP_pressure;BME280_temperature;BME280_humidity;BME280_pressure;Samples;Min_cycle;Max_cycle;Signal;HPM_P1;HPM_P2
2022/09/16 00:00:17;;;;;;;3.15;1.27;;;11.10;99.90;;;;;;5093848;28;20051;-70
2022/09/16 00:02:43;;;;;;;3.45;1.30;;;11.00;99.90;;;;;;5092009;28;20131;-70
2022/09/16 00:05:09;;;;;;;7.22;1.33;;;11.10;99.90;;;;;;5097607;28;20505;-70
2022/09/16 00:07:35;;;;;;;4.82;1.38;;;11.10;99.90;;;;;;5067777;28;20050;-70
2022/09/16 00:10:01;;;;;;;9.13;1.60;;;11.20;99.90;;;;;;5103383;28;20040;-70
2022/09/16 00:12:27;;;;;;;5.60;2.45;;;11.20;99.90;;;;;;5099008;28;20554;-70
2022/09/16 00:14:53;;;;;;;5.40;2.03;;;11.20;99.90;;;;;;5093202;28;20052;-70
2022/09/16 00:17:19;;;;;;;6.22;1.70;;;11.20;99.90;;;;;;5091930;28;20044;-70
2022/09/16 00:19:45;;;;;;;4.32;1.50;;;11.20;99.90;;;;;;5094965;28;20045;-70
2022/09/16 00:22:11;;;;;;;6.75;1.58;;;11.20;99.90;;;;;;5095320;28;20056;-70
2022/09/16 00:24:37;;;;;;;7.00;1.55;;;11.20;99.90;;;;;;5105202;28;20040;-70
2022/09/16 00:27:03;;;;;;;10.85;1.83;;;11.20;99.90;;;;;;5099830;28;20079;-70
2022/09/16 00:29:28;;;;;;;5.78;1.80;;;11.20;99.90;;;;;;5085405;28;20047;-70
2022/09/16 00:31:54;;;;;;;7.05;2.63;;;11.10;99.90;;;;;;5090636;28;20064;-70
2022/09/16 00:34:20;;;;;;;9.23;1.50;;;11.20;99.90;;;;;;5092392;28;20063;-70
2022/09/16 00:36:45;;;;;;;6.18;1.92;;;11.20;99.90;;;;;;5071310;28;20499;-70
2022/09/16 00:39:11;;;;;;;7.13;1.80;;;11.20;99.90;;;;;;5091909;28;20040;-70
2022/09/16 00:41:37;;;;;;;5.72;1.60;;;11.20;99.90;;;;;;5091134;28;20075;-70
2022/09/16 00:44:06;;;;;;;6.72;2.00;;;11.20;99.90;;;;;;5091214;28;20123;-70
2022/09/16 00:46:41;;;;;;;5.57;1.50;;;11.10;99.90;;;;;;5095901;28;20080;-70
2022/09/16 00:49:29;;;;;;;4.85;1.75;;;11.20;99.90;;;;;;5097980;28;20100;-70
2022/09/16 00:52:02;;;;;;;7.65;1.85;;;11.20;99.90;;;;;;5093826;28;20105;-70
2022/09/16 00:54:29;;;;;;;7.53;2.13;;;11.20;99.90;;;;;;5097085;28;20402;-70
2022/09/16 00:56:58;;;;;;;7.45;1.50;;;11.30;99.90;;;;;;5091016;28;20083;-70
2022/09/16 00:59:28;;;;;;;4.70;1.55;;;11.20;99.90;;;;;;5087208;28;20041;-70
2022/09/16 01:01:57;;;;;;;7.38;1.55;;;11.30;99.90;;;;;;5089738;28;20044;-70
2022/09/16 01:04:30;;;;;;;7.53;1.40;;;11.30;99.90;;;;;;5087106;28;20052;-70
2022/09/16 01:06:56;;;;;;;6.63;1.42;;;11.30;99.90;;;;;;5090833;28;20048;-70
2022/09/16 01:09:24;;;;;;;4.15;1.20;;;11.40;99.90;;;;;;5101837;28;20443;-70
2022/09/16 01:11:50;;;;;;;4.65;1.52;;;11.40;99.90;;;;;;5098829;28;20407;-70
2022/09/16 01:14:52;;;;;;;6.32;1.30;;;11.40;99.90;;;;;;5099050;28;20044;-70
2022/09/16 01:17:27;;;;;;;5.93;0.98;;;11.30;99.90;;;;;;5088135;28;20036;-70
2022/09/16 01:20:24;;;;;;;5.28;1.10;;;11.30;99.90;;;;;;5087178;28;20100;-70
2022/09/16 01:23:26;;;;;;;3.10;1.00;;;11.30;99.90;;;;;;5094333;28;20044;-70
2022/09/16 01:26:19;;;;;;;3.65;1.10;;;11.30;99.90;;;;;;5088288;28;20048;-70
2022/09/16 01:29:23;;;;;;;5.55;1.55;;;11.30;99.90;;;;;;5085014;28;20152;-70
2022/09/16 01:32:02;;;;;;;8.38;1.55;;;11.20;99.90;;;;;;5091886;28;20121;-71
2022/09/16 01:34:41;;;;;;;8.38;1.27;;;11.20;99.90;;;;;;5086622;28;20079;-71
2022/09/16 01:37:28;;;;;;;8.07;1.35;;;11.10;99.90;;;;;;5083472;28;20147;-71
2022/09/16 01:39:57;;;;;;;6.88;1.67;;;11.20;99.90;;;;;;5085746;28;20064;-71
2022/09/16 01:42:35;;;;;;;8.45;1.55;;;11.20;99.90;;;;;;5089638;28;20052;-70
2022/09/16 01:45:22;;;;;;;9.07;2.03;;;11.10;99.90;;;;;;5067888;28;20048;-70
2022/09/16 01:47:55;;;;;;;8.10;1.52;;;11.10;99.90;;;;;;5101461;28;20078;-70
2022/09/16 01:50:26;;;;;;;7.28;1.60;;;11.20;99.90;;;;;;5098934;28;20104;-70
2022/09/16 01:53:18;;;;;;;7.40;2.25;;;11.20;99.90;;;;;;5087104;28;20557;-70
2022/09/16 01:55:48;;;;;;;9.43;1.80;;;11.10;99.90;;;;;;5062041;28;20049;-70
2022/09/16 01:58:39;;;;;;;9.88;2.53;;;11.10;99.90;;;;;;5061538;28;20068;-70
2022/09/16 02:01:23;;;;;;;6.53;1.60;;;11.20;99.90;;;;;;5060598;28;20098;-70
2022/09/16 02:03:54;;;;;;;6.57;1.45;;;11.10;99.90;;;;;;5043333;28;20041;-70
2022/09/16 02:06:23;;;;;;;6.38;1.98;;;11.10;99.90;;;;;;5044672;28;20160;-70
2022/09/16 02:09:00;;;;;;;6.18;1.65;;;11.10;99.90;;;;;;5044556;28;20587;-70
2022/09/16 02:11:26;;;;;;;6.95;2.20;;;11.10;99.90;;;;;;5061247;28;20104;-70
2022/09/16 02:14:05;;;;;;;4.63;1.70;;;11.00;99.90;;;;;;5044032;28;20076;-70
2022/09/16 02:16:38;;;;;;;12.77;2.58;;;11.00;99.90;;;;;;5055098;28;20120;-70
2022/09/16 02:19:12;;;;;;;5.35;1.67;;;11.00;99.90;;;;;;5041828;28;20061;-70
2022/09/16 02:21:40;;;;;;;6.90;1.60;;;11.00;99.90;;;;;;5044990;28;20187;-70
2022/09/16 02:24:10;;;;;;;6.53;1.30;;;11.00;99.90;;;;;;5061885;28;20037;-70
2022/09/16 02:26:40;;;;;;;6.45;1.70;;;10.90;99.90;;;;;;5045846;28;20086;-70
2022/09/16 02:29:14;;;;;;;7.93;1.40;;;10.80;99.90;;;;;;5049342;28;20045;-70
2022/09/16 02:31:43;;;;;;;5.03;1.52;;;10.80;99.90;;;;;;5070807;28;20116;-70
2022/09/16 02:34:18;;;;;;;8.35;2.38;;;10.80;99.90;;;;;;5097253;28;20053;-70
2022/09/16 02:36:48;;;;;;;9.82;1.90;;;10.80;99.90;;;;;;5093183;28;20040;-70
2022/09/16 02:39:21;;;;;;;6.38;2.45;;;10.80;99.90;;;;;;5103166;28;20048;-70
2022/09/16 02:41:48;;;;;;;6.32;1.40;;;10.80;99.90;;;;;;5094017;28;20439;-70
2022/09/16 02:44:14;;;;;;;10.00;1.75;;;10.80;99.90;;;;;;5098638;28;20095;-70
2022/09/16 02:46:48;;;;;;;7.85;1.80;;;10.70;99.90;;;;;;5096410;28;20063;-70
2022/09/16 02:49:33;;;;;;;6.00;1.40;;;10.70;99.90;;;;;;5091589;28;20127;-70
2022/09/16 02:52:09;;;;;;;9.88;1.60;;;10.70;99.90;;;;;;5086587;28;20405;-70
2022/09/16 02:54:55;;;;;;;7.45;1.70;;;10.70;99.90;;;;;;5095658;28;20051;-70
2022/09/16 02:57:21;;;;;;;7.18;1.88;;;10.70;99.90;;;;;;5091877;28;20083;-70
2022/09/16 02:59:48;;;;;;;9.60;1.73;;;10.70;99.90;;;;;;5101481;28;20049;-70
2022/09/16 03:02:14;;;;;;;5.88;1.42;;;10.80;99.90;;;;;;5094326;28;20067;-70
2022/09/16 03:04:40;;;;;;;3.92;1.65;;;10.90;99.90;;;;;;5091741;28;20461;-70
2022/09/16 03:07:08;;;;;;;8.23;1.75;;;10.80;99.90;;;;;;5084521;28;20450;-70
2022/09/16 03:09:37;;;;;;;8.07;1.80;;;10.90;99.90;;;;;;5096407;28;20070;-70
2022/09/16 03:12:26;;;;;;;4.68;1.42;;;10.90;99.90;;;;;;5098737;28;20055;-70
2022/09/16 03:14:57;;;;;;;8.45;2.05;;;10.90;99.90;;;;;;5093999;28;20047;-70
2022/09/16 03:17:50;;;;;;;9.27;1.92;;;10.90;99.90;;;;;;5083793;28;20131;-70
2022/09/16 03:20:39;;;;;;;9.85;2.00;;;11.00;99.90;;;;;;5095698;28;20064;-70
2022/09/16 03:23:23;;;;;;;7.85;1.85;;;11.00;99.90;;;;;;5073239;28;20048;-70
2022/09/16 03:26:01;;;;;;;9.07;1.60;;;11.00;99.90;;;;;;5100826;28;20071;-70
2022/09/16 03:28:33;;;;;;;11.10;1.83;;;10.90;99.90;;;;;;5093469;28;20059;-70
2022/09/16 03:31:16;;;;;;;5.50;1.40;;;10.90;99.90;;;;;;5094301;28;20067;-70
2022/09/16 03:33:51;;;;;;;8.43;1.50;;;10.90;99.90;;;;;;5096396;28;20462;-70
2022/09/16 03:36:22;;;;;;;3.85;1.40;;;10.90;99.90;;;;;;5094127;28;20075;-70
2022/09/16 03:38:48;;;;;;;10.43;1.90;;;11.00;99.90;;;;;;5101059;28;20120;-70
2022/09/16 03:41:15;;;;;;;6.93;1.60;;;10.90;99.90;;;;;;5094943;28;20044;-70
2022/09/16 03:43:52;;;;;;;7.50;1.63;;;10.90;99.90;;;;;;5097256;28;20048;-70
2022/09/16 03:46:17;;;;;;;5.55;1.25;;;10.80;99.90;;;;;;5095798;28;20075;-70
2022/09/16 03:48:43;;;;;;;5.18;1.50;;;10.80;99.90;;;;;;5094117;28;20036;-70
2022/09/16 03:51:09;;;;;;;4.45;1.30;;;10.70;99.90;;;;;;5100029;28;20056;-70
2022/09/16 03:53:34;;;;;;;5.93;1.25;;;10.70;99.90;;;;;;5098673;28;20112;-70
2022/09/16 03:56:00;;;;;;;7.63;1.55;;;10.70;99.90;;;;;;5099932;28;20036;-70
2022/09/16 03:58:26;;;;;;;7.63;1.90;;;10.60;99.90;;;;;;5094727;28;20044;-70
2022/09/16 04:00:52;;;;;;;5.65;1.40;;;10.60;99.90;;;;;;5096584;28;20052;-70
2022/09/16 04:03:18;;;;;;;10.25;1.58;;;10.60;99.90;;;;;;5095088;28;20048;-70
2022/09/16 04:05:43;;;;;;;8.80;1.60;;;10.60;99.90;;;;;;5101523;28;20075;-70
2022/09/16 04:08:09;;;;;;;4.38;1.48;;;10.60;99.90;;;;;;5098994;28;20079;-70
2022/09/16 04:10:35;;;;;;;4.75;1.20;;;10.50;99.90;;;;;;5093849;28;20053;-70
2022/09/16 04:13:00;;;;;;;9.25;2.33;;;10.50;99.90;;;;;;5094795;28;20041;-70
2022/09/16 04:15:26;;;;;;;7.82;1.30;;;10.50;99.90;;;;;;5093448;28;20074;-70
2022/09/16 04:17:52;;;;;;;5.65;1.42;;;10.50;99.90;;;;;;5101271;28;20146;-70
2022/09/16 04:20:17;;;;;;;8.68;2.35;;;10.40;99.90;;;;;;5099278;28;20041;-70
2022/09/16 04:22:43;;;;;;;5.43;1.45;;;10.40;99.90;;;;;;5097246;28;20048;-70
2022/09/16 04:25:09;;;;;;;9.13;1.55;;;10.50;99.90;;;;;;5103537;28;20040;-70
2022/09/16 04:27:35;;;;;;;8.25;1.45;;;10.50;99.90;;;;;;5096158;28;20323;-70
2022/09/16 04:30:00;;;;;;;10.02;1.85;;;10.50;99.90;;;;;;5103031;28;20052;-70
2022/09/16 04:32:26;;;;;;;4.75;1.48;;;10.50;99.90;;;;;;5103630;28;20302;-70
2022/09/16 04:34:52;;;;;;;6.95;1.70;;;10.50;99.90;;;;;;5095046;28;20104;-70
2022/09/16 04:37:17;;;;;;;5.32;1.38;;;10.50;99.90;;;;;;5101918;28;20048;-70
2022/09/16 04:39:43;;;;;;;6.93;1.30;;;10.50;99.90;;;;;;5097153;28;20040;-70
2022/09/16 04:42:11;;;;;;;14.43;2.15;;;10.40;99.90;;;;;;5093671;28;20078;-70
2022/09/16 04:44:37;;;;;;;4.45;1.20;;;10.50;99.90;;;;;;5100053;28;20492;-70
2022/09/16 04:47:03;;;;;;;9.00;1.10;;;10.40;99.90;;;;;;5101565;28;20079;-70
2022/09/16 04:49:29;;;;;;;8.57;2.05;;;10.40;99.90;;;;;;5094739;28;20543;-70
2022/09/16 04:51:55;;;;;;;10.23;2.58;;;10.30;99.90;;;;;;5070762;28;20056;-70
2022/09/16 04:54:20;;;;;;;3.92;1.40;;;10.20;99.90;;;;;;5099417;28;20044;-70
2022/09/16 04:56:46;;;;;;;7.93;1.60;;;10.20;99.90;;;;;;5094999;28;20071;-70
2022/09/16 04:59:12;;;;;;;7.38;1.98;;;10.20;99.90;;;;;;5100612;28;20043;-70
2022/09/16 05:01:38;;;;;;;8.20;1.73;;;10.20;99.90;;;;;;5074294;28;20112;-70
2022/09/16 05:04:06;;;;;;;5.60;2.03;;;10.10;99.90;;;;;;5067850;28;20087;-70
2022/09/16 05:06:34;;;;;;;7.25;2.28;;;10.10;99.90;;;;;;5068181;28;20052;-70
2022/09/16 05:09:01;;;;;;;5.93;1.35;;;10.00;99.90;;;;;;5094434;28;20606;-70
2022/09/16 05:11:29;;;;;;;4.38;1.67;;;10.10;99.90;;;;;;5091055;28;20044;-70
2022/09/16 05:13:59;;;;;;;7.97;1.30;;;10.00;99.90;;;;;;5092048;28;20471;-70
2022/09/16 05:16:26;;;;;;;10.65;1.58;;;9.80;99.90;;;;;;5098027;28;20117;-70
2022/09/16 05:18:55;;;;;;;11.90;1.70;;;9.90;99.90;;;;;;5088556;28;20040;-70
2022/09/16 05:21:22;;;;;;;5.38;1.20;;;9.90;99.90;;;;;;5089828;28;20420;-70
2022/09/16 05:23:48;;;;;;;8.30;1.52;;;9.80;99.90;;;;;;5080923;28;20033;-70
2022/09/16 05:26:26;;;;;;;4.50;1.30;;;9.80;99.90;;;;;;5085457;28;20059;-70
2022/09/16 05:28:52;;;;;;;7.20;1.65;;;9.80;99.90;;;;;;5091881;28;20123;-70
2022/09/16 05:31:26;;;;;;;4.93;1.30;;;9.90;99.90;;;;;;5087490;28;20053;-70
2022/09/16 05:33:54;;;;;;;10.05;3.55;;;9.90;99.90;;;;;;5057081;28;20468;-71
2022/09/16 05:36:21;;;;;;;13.10;2.05;;;9.90;99.90;;;;;;5078580;28;20139;-70
2022/09/16 05:38:47;;;;;;;4.88;1.48;;;9.90;99.90;;;;;;5083849;28;20040;-70
2022/09/16 05:41:13;;;;;;;6.18;1.27;;;9.90;99.90;;;;;;5094950;28;20040;-73
2022/09/16 05:43:39;;;;;;;14.77;1.77;;;10.00;99.90;;;;;;5087361;28;20061;-71
2022/09/16 05:46:06;;;;;;;8.18;1.33;;;10.00;99.90;;;;;;5087280;28;20102;-70
2022/09/16 05:48:33;;;;;;;5.85;1.30;;;10.00;99.90;;;;;;5084565;28;20052;-71
2022/09/16 05:51:05;;;;;;;6.15;1.20;;;10.00;99.90;;;;;;5085895;28;20052;-71
2022/09/16 05:53:32;;;;;;;11.65;1.88;;;10.00;99.90;;;;;;5082574;28;20049;-71
2022/09/16 05:56:05;;;;;;;5.97;1.40;;;10.00;99.90;;;;;;5082284;28;20071;-71
2022/09/16 05:58:32;;;;;;;6.68;1.33;;;10.00;99.90;;;;;;5082525;28;20040;-71
2022/09/16 06:01:04;;;;;;;11.25;1.52;;;10.00;99.90;;;;;;5083012;28;20053;-70
2022/09/16 06:03:32;;;;;;;10.85;1.60;;;10.20;99.90;;;;;;5085458;28;20098;-70
2022/09/16 06:06:02;;;;;;;9.05;2.13;;;10.30;99.90;;;;;;5083430;28;20100;-71
2022/09/16 06:08:30;;;;;;;6.88;1.75;;;10.40;99.90;;;;;;5096601;28;20041;-71
2022/09/16 06:10:56;;;;;;;9.45;1.80;;;10.50;99.90;;;;;;5084496;28;20094;-72
2022/09/16 06:13:22;;;;;;;7.55;1.23;;;10.60;99.90;;;;;;5085290;28;20079;-71
2022/09/16 06:15:53;;;;;;;8.77;1.70;;;10.70;99.90;;;;;;5081545;28;20048;-71
2022/09/16 06:18:20;;;;;;;8.77;1.42;;;10.70;99.90;;;;;;5085559;28;20052;-71
2022/09/16 06:20:46;;;;;;;11.48;2.10;;;10.70;99.90;;;;;;5091552;28;20036;-72
2022/09/16 06:23:12;;;;;;;9.48;1.92;;;10.70;99.90;;;;;;5080217;28;20484;-73
2022/09/16 06:25:38;;;;;;;7.63;1.88;;;10.80;99.90;;;;;;5044053;28;20454;-73
2022/09/16 06:28:04;;;;;;;7.13;1.40;;;10.80;99.90;;;;;;5060101;28;20151;-73
2022/09/16 06:30:30;;;;;;;10.10;1.85;;;10.90;99.90;;;;;;5079770;28;20089;-73
2022/09/16 06:32:56;;;;;;;13.32;2.78;;;10.90;99.90;;;;;;5085747;28;20077;-73
2022/09/16 06:35:22;;;;;;;9.73;1.80;;;10.90;99.90;;;;;;5054269;28;20067;-73
2022/09/16 06:37:48;;;;;;;7.13;2.08;;;11.00;99.90;;;;;;5070510;28;20074;-73
2022/09/16 06:40:13;;;;;;;8.32;1.67;;;11.10;99.90;;;;;;5074489;28;20062;-72
2022/09/16 06:42:39;;;;;;;11.38;1.50;;;11.10;99.90;;;;;;5067774;28;20059;-70
2022/09/16 06:45:05;;;;;;;9.73;1.42;;;11.10;99.90;;;;;;5069762;28;20567;-70
2022/09/16 06:47:34;;;;;;;11.30;2.47;;;11.20;99.90;;;;;;5076592;28;20029;-70
2022/09/16 06:50:00;;;;;;;9.20;1.88;;;11.30;99.90;;;;;;5075000;28;20051;-71
2022/09/16 06:52:27;;;;;;;10.98;1.73;;;11.30;99.90;;;;;;5058453;28;20048;-70
2022/09/16 06:54:53;;;;;;;11.30;1.52;;;11.30;99.90;;;;;;5078605;28;20047;-72
2022/09/16 06:57:21;;;;;;;6.93;1.70;;;11.40;99.90;;;;;;5072060;28;20044;-70
2022/09/16 06:59:51;;;;;;;9.35;1.75;;;11.40;99.90;;;;;;5079321;28;20459;-70
2022/09/16 07:02:18;;;;;;;7.22;1.67;;;11.40;99.90;;;;;;5054780;28;20056;-70
2022/09/16 07:04:44;;;;;;;10.20;1.85;;;11.40;99.90;;;;;;5083556;28;20046;-70
2022/09/16 07:07:11;;;;;;;10.85;1.85;;;11.50;99.90;;;;;;5066671;28;20106;-71
2022/09/16 07:09:37;;;;;;;11.18;1.95;;;11.50;99.90;;;;;;5073417;28;20072;-71
2022/09/16 07:12:04;;;;;;;8.10;1.50;;;11.60;99.90;;;;;;5065696;28;20059;-71
2022/09/16 07:14:32;;;;;;;7.00;1.45;;;11.60;99.90;;;;;;5089429;28;20059;-71
2022/09/16 07:16:59;;;;;;;10.85;1.83;;;11.60;99.90;;;;;;5058523;28;20170;-71
2022/09/16 07:19:26;;;;;;;12.50;1.70;;;11.70;99.90;;;;;;5093558;28;20044;-71
2022/09/16 07:21:52;;;;;;;10.23;1.50;;;11.80;99.90;;;;;;5073827;28;20560;-70
2022/09/16 07:24:18;;;;;;;8.38;1.83;;;11.90;99.90;;;;;;5064210;28;20040;-69
2022/09/16 07:26:44;;;;;;;11.20;1.55;;;12.10;99.90;;;;;;5063983;28;20082;-69
2022/09/16 07:29:16;;;;;;;9.50;1.50;;;12.20;99.90;;;;;;5078451;28;21310;-69
2022/09/16 07:31:42;;;;;;;9.38;1.48;;;12.30;99.90;;;;;;5070134;28;20097;-68
2022/09/16 07:34:10;;;;;;;14.77;2.47;;;12.30;99.90;;;;;;5069782;28;20082;-68
2022/09/16 07:36:38;;;;;;;10.52;1.90;;;12.30;99.90;;;;;;5056701;28;20056;-68
2022/09/16 07:39:05;;;;;;;12.90;1.73;;;12.30;99.90;;;;;;5078846;28;20041;-69
2022/09/16 07:41:37;;;;;;;7.97;1.85;;;12.20;99.90;;;;;;5086661;28;20048;-68
2022/09/16 07:44:04;;;;;;;11.88;1.83;;;12.30;99.90;;;;;;5087949;28;20048;-69
2022/09/16 07:46:32;;;;;;;12.57;2.33;;;12.30;99.90;;;;;;5078962;28;20056;-68
2022/09/16 07:48:59;;;;;;;7.63;1.58;;;12.50;99.90;;;;;;5088303;28;20078;-69
2022/09/16 07:51:27;;;;;;;14.25;1.98;;;12.50;99.90;;;;;;5079029;28;20371;-68
2022/09/16 07:53:54;;;;;;;8.75;2.38;;;12.70;99.90;;;;;;5085535;28;20392;-69
2022/09/16 07:56:24;;;;;;;14.75;1.88;;;12.70;99.90;;;;;;5062557;28;20059;-69
2022/09/16 07:58:51;;;;;;;11.43;2.17;;;12.90;99.90;;;;;;5087268;28;20040;-69
2022/09/16 08:01:17;;;;;;;11.32;2.13;;;12.90;99.90;;;;;;5081597;28;20048;-69
2022/09/16 08:03:44;;;;;;;18.80;2.45;;;13.00;99.90;;;;;;5078998;28;20109;-71
2022/09/16 08:06:22;;;;;;;10.32;1.83;;;13.00;99.90;;;;;;5071494;28;20049;-67
2022/09/16 08:08:51;;;;;;;9.40;1.80;;;13.10;99.90;;;;;;5073889;28;20080;-70
2022/09/16 08:11:17;;;;;;;14.53;2.23;;;13.20;99.90;;;;;;5069025;28;20040;-71
2022/09/16 08:13:45;;;;;;;8.93;1.70;;;13.20;99.90;;;;;;5076808;28;20052;-71
2022/09/16 08:16:13;;;;;;;11.68;1.90;;;13.40;99.90;;;;;;5067615;28;20052;-69
2022/09/16 08:18:39;;;;;;;14.55;2.10;;;13.40;99.90;;;;;;5079917;28;20138;-68
2022/09/16 08:21:11;;;;;;;10.23;1.60;;;13.50;99.90;;;;;;5055561;28;20040;-72
2022/09/16 08:23:37;;;;;;;13.85;1.83;;;13.60;99.90;;;;;;5076583;28;20052;-67
2022/09/16 08:26:04;;;;;;;13.20;2.15;;;13.80;99.90;;;;;;5073957;28;20052;-69
2022/09/16 08:28:30;;;;;;;15.05;2.13;;;13.90;99.90;;;;;;5077485;28;20086;-68
2022/09/16 08:31:00;;;;;;;10.30;1.67;;;13.90;99.90;;;;;;5077265;28;20040;-68
2022/09/16 08:33:26;;;;;;;;;;;14.00;99.90;;;;;;5074028;28;20135;-68
2022/09/16 08:36:03;;;;;;;8.27;1.67;;;14.00;99.90;;;;;;5054247;28;19963;-69
2022/09/16 08:38:28;;;;;;;18.70;2.15;;;14.20;99.90;;;;;;5068292;28;20052;-69
2022/09/16 08:41:25;;;;;;;15.25;2.50;;;14.20;99.90;;;;;;5077936;28;20048;-68
2022/09/16 08:44:28;;;;;;;9.13;1.60;;;14.30;99.90;;;;;;5033994;28;20083;-69
2022/09/16 08:47:05;;;;;;;13.90;1.95;;;14.40;99.90;;;;;;5080254;28;20052;-68
2022/09/16 08:49:37;;;;;;;14.85;1.88;;;14.50;99.90;;;;;;5081783;28;20048;-69
2022/09/16 08:52:14;;;;;;;12.93;2.42;;;14.60;99.90;;;;;;5072024;28;20040;-69
2022/09/16 08:54:49;;;;;;;12.23;2.55;;;14.80;99.90;;;;;;5082632;28;20051;-70
2022/09/16 08:57:24;;;;;;;19.33;2.25;;;14.80;99.90;;;;;;5062867;28;20053;-71
2022/09/16 09:00:19;;;;;;;16.08;2.40;;;14.90;99.90;;;;;;5062204;28;20109;-70
2022/09/16 09:03:13;;;;;;;9.90;1.88;;;14.80;99.90;;;;;;5054653;28;20047;-70
2022/09/16 09:05:52;;;;;;;7.57;1.90;;;14.70;99.90;;;;;;5068103;28;20054;-70
2022/09/16 09:08:44;;;;;;;15.35;2.13;;;14.70;99.90;;;;;;5078697;28;20104;-70
2022/09/16 09:11:23;;;;;;;11.23;1.77;;;14.80;99.90;;;;;;5074584;28;20044;-70
2022/09/16 09:14:06;;;;;;;12.27;2.28;;;14.80;99.90;;;;;;5075398;28;20277;-70
2022/09/16 09:16:50;;;;;;;11.77;2.38;;;15.00;99.90;;;;;;5072630;28;20044;-70
2022/09/16 09:19:35;;;;;;;9.45;2.08;;;15.10;99.90;;;;;;5075779;28;20407;-70
2022/09/16 09:22:23;;;;;;;12.07;2.20;;;15.10;99.90;;;;;;5067271;28;20059;-70
2022/09/16 09:25:02;;;;;;;13.25;2.13;;;15.20;99.90;;;;;;5087260;28;20066;-70
2022/09/16 09:27:46;;;;;;;13.70;2.00;;;15.30;99.90;;;;;;5070373;28;20048;-70
2022/09/16 09:30:19;;;;;;;8.90;1.58;;;15.30;99.90;;;;;;5077258;28;20071;-70
2022/09/16 09:33:07;;;;;;;8.63;1.73;;;15.40;99.90;;;;;;5066454;28;20070;-70
2022/09/16 09:36:04;;;;;;;9.77;2.42;;;15.50;99.90;;;;;;5068375;28;20149;-71
2022/09/16 09:38:52;;;;;;;8.68;1.75;;;15.50;99.90;;;;;;5060899;28;20048;-68
2022/09/16 09:41:18;;;;;;;10.63;1.85;;;15.50;99.90;;;;;;5066499;28;20048;-70
2022/09/16 09:43:57;;;;;;;10.18;2.25;;;15.70;99.90;;;;;;5086025;28;20086;-70
2022/09/16 09:46:36;;;;;;;10.45;1.70;;;15.70;99.90;;;;;;5070687;28;20040;-71
2022/09/16 09:49:25;;;;;;;18.15;2.75;;;15.90;99.90;;;;;;5082099;28;20111;-72
2022/09/16 09:52:00;;;;;;;13.70;2.17;;;16.10;99.90;;;;;;5078360;28;20052;-72
2022/09/16 09:54:35;;;;;;;8.77;1.85;;;16.20;99.90;;;;;;5083310;28;20047;-72
2022/09/16 09:57:02;;;;;;;12.60;1.95;;;16.00;99.90;;;;;;5068998;28;20346;-72
2022/09/16 10:00:10;;;;;;;8.40;2.33;;;15.90;99.90;;;;;;5079095;28;20044;-72
2022/09/16 10:02:39;;;;;;;14.40;2.30;;;15.80;99.90;;;;;;5069069;28;20090;-71
2022/09/16 10:05:06;;;;;;;9.98;1.50;;;15.60;99.90;;;;;;5101405;28;20301;-71
2022/09/16 10:07:36;;;;;;;11.73;1.77;;;15.70;99.90;;;;;;5051134;28;20106;-72
2022/09/16 10:10:22;;;;;;;7.85;2.00;;;15.90;99.90;;;;;;5085093;28;20051;-71
2022/09/16 10:12:49;;;;;;;11.88;2.63;;;16.10;99.90;;;;;;5067541;28;20056;-68
2022/09/16 10:15:34;;;;;;;8.00;2.15;;;16.30;99.90;;;;;;5084847;28;20444;-67
2022/09/16 10:18:07;;;;;;;9.13;2.08;;;16.40;99.90;;;;;;5069344;28;20051;-66
2022/09/16 10:20:40;;;;;;;6.45;1.45;;;16.50;99.90;;;;;;5084708;28;20070;-66
2022/09/16 10:23:13;;;;;;;12.10;1.73;;;16.70;99.90;;;;;;5059566;28;20090;-68
2022/09/16 10:25:40;;;;;;;12.27;1.67;;;16.60;99.90;;;;;;5086216;28;20043;-68
2022/09/16 10:28:23;;;;;;;9.60;2.03;;;16.50;99.90;;;;;;5058223;28;20057;-67
2022/09/16 10:30:54;;;;;;;9.32;1.50;;;16.40;99.90;;;;;;5072214;28;20071;-67
2022/09/16 10:33:24;;;;;;;10.57;1.33;;;16.30;99.90;;;;;;5083408;28;20040;-67
2022/09/16 10:35:56;;;;;;;;;;;16.40;99.90;;;;;;5059201;28;20052;-68
2022/09/16 10:38:26;;;;;;;8.75;1.63;;;16.40;99.90;;;;;;5073593;28;19963;-67
2022/09/16 10:41:03;;;;;;;13.77;2.35;;;16.50;99.90;;;;;;5070908;28;20115;-67
2022/09/16 10:43:30;;;;;;;13.73;2.35;;;16.70;99.90;;;;;;5075158;28;20095;-70
2022/09/16 10:45:57;;;;;;;9.50;1.67;;;16.90;99.90;;;;;;5074371;28;20067;-70
2022/09/16 10:48:26;;;;;;;14.10;1.95;;;17.10;99.90;;;;;;5083613;28;20037;-70
2022/09/16 10:50:56;;;;;;;;;;;17.10;99.90;;;;;;5072246;28;20048;-72
2022/09/16 10:53:34;;;;;;;16.30;2.00;;;16.60;99.90;;;;;;5053254;28;19942;-72
2022/09/16 10:56:19;;;;;;;11.30;1.92;;;15.50;99.90;;;;;;5071454;28;20064;-71
2022/09/16 10:58:44;;;;;;;10.02;1.80;;;14.80;99.90;;;;;;5063532;28;20059;-72
2022/09/16 11:01:29;;;;;;;10.43;1.92;;;14.30;99.90;;;;;;5059459;28;20098;-70
2022/09/16 11:04:32;;;;;;;14.98;1.73;;;14.00;99.90;;;;;;5086218;28;20054;-71
2022/09/16 11:07:39;;;;;;;9.80;1.88;;;14.10;99.90;;;;;;5083508;28;20051;-70
2022/09/16 11:10:35;;;;;;;15.70;2.03;;;14.40;99.90;;;;;;5083040;28;20051;-70
2022/09/16 11:13:30;;;;;;;11.32;1.73;;;14.50;99.90;;;;;;5063894;28;20059;-70
2022/09/16 11:16:23;;;;;;;12.57;2.50;;;14.80;99.90;;;;;;5094052;28;20045;-70
2022/09/16 11:19:06;;;;;;;10.23;1.60;;;15.00;99.90;;;;;;5053960;28;20073;-71
2022/09/16 11:22:02;;;;;;;8.95;2.20;;;15.30;99.90;;;;;;5064200;28;20052;-70
2022/09/16 11:24:54;;;;;;;5.95;1.20;;;15.30;99.90;;;;;;5086670;28;20044;-70
2022/09/16 11:27:47;;;;;;;10.85;2.25;;;15.20;99.90;;;;;;5069456;28;20063;-71
2022/09/16 11:30:16;;;;;;;8.32;2.00;;;15.20;99.90;;;;;;5066610;28;20044;-70
2022/09/16 11:33:03;;;;;;;10.32;1.42;;;15.40;99.90;;;;;;5051999;28;20049;-70
2022/09/16 11:35:39;;;;;;;10.63;2.03;;;15.50;99.90;;;;;;5063684;28;20057;-70
2022/09/16 11:38:15;;;;;;;9.00;2.10;;;15.60;99.90;;;;;;5064369;28;20083;-73
2022/09/16 11:41:02;;;;;;;9.32;2.03;;;15.80;99.90;;;;;;5087878;28;20131;-70
2022/09/16 11:43:52;;;;;;;9.07;1.33;;;16.00;99.90;;;;;;5055829;28;20060;-69
2022/09/16 11:46:22;;;;;;;7.60;1.35;;;16.30;99.90;;;;;;5066263;28;20072;-70
2022/09/16 11:49:12;;;;;;;7.53;1.40;;;16.40;99.90;;;;;;5070975;28;20084;-70
2022/09/16 11:52:20;;;;;;;4.25;1.17;;;16.70;99.90;;;;;;5072018;28;20049;-69
2022/09/16 11:54:57;;;;;;;13.85;2.63;;;16.70;99.90;;;;;;5078754;28;20047;-69
2022/09/16 11:57:27;;;;;;;7.85;1.63;;;16.50;99.90;;;;;;5057319;28;20056;-70
2022/09/16 11:59:55;;;;;;;10.88;1.67;;;15.90;99.90;;;;;;5075849;28;20080;-70
2022/09/16 12:02:39;;;;;;;7.90;1.13;;;15.40;99.90;;;;;;5074526;28;20048;-70
2022/09/16 12:05:20;;;;;;;10.10;1.90;;;15.00;99.90;;;;;;5062095;28;20177;-70
2022/09/16 12:07:58;;;;;;;10.27;1.67;;;14.90;99.90;;;;;;5074841;28;20056;-70
2022/09/16 12:10:42;;;;;;;10.05;2.20;;;15.10;99.90;;;;;;5078716;28;20059;-69
2022/09/16 12:13:29;;;;;;;10.80;1.80;;;15.40;99.90;;;;;;5073833;28;20628;-69
2022/09/16 12:16:04;;;;;;;12.32;2.53;;;15.70;99.90;;;;;;5082998;28;20324;-70
2022/09/16 12:18:44;;;;;;;14.02;1.42;;;15.70;99.90;;;;;;5056876;28;20048;-70
2022/09/16 12:21:13;;;;;;;9.20;2.08;;;15.50;99.90;;;;;;5078348;28;20119;-70
2022/09/16 12:23:47;;;;;;;7.55;1.55;;;15.30;99.90;;;;;;5069625;28;20671;-71
2022/09/16 12:26:20;;;;;;;5.72;1.20;;;15.10;99.90;;;;;;5084497;28;20040;-70
2022/09/16 12:29:04;;;;;;;9.05;1.83;;;15.00;99.90;;;;;;5065384;28;20110;-71
2022/09/16 12:31:52;;;;;;;7.10;1.90;;;15.20;99.90;;;;;;5081357;28;20086;-71
2022/09/16 12:34:21;;;;;;;7.88;1.73;;;15.50;99.90;;;;;;5072648;28;20048;-70
2022/09/16 12:36:53;;;;;;;11.30;2.10;;;15.70;99.90;;;;;;5042670;28;20118;-69
2022/09/16 12:39:19;;;;;;;8.20;1.92;;;16.00;99.90;;;;;;5078423;28;20561;-69
2022/09/16 12:42:12;;;;;;;8.40;1.98;;;16.20;99.90;;;;;;5073780;28;20190;-68
2022/09/16 12:44:59;;;;;;;10.50;2.08;;;16.30;99.90;;;;;;5065876;28;20080;-68
2022/09/16 12:47:40;;;;;;;8.82;1.80;;;16.60;99.90;;;;;;5064801;28;20403;-68
2022/09/16 12:50:24;;;;;;;14.05;2.00;;;17.00;99.90;;;;;;5078289;28;20072;-68
2022/09/16 12:53:20;;;;;;;9.90;2.00;;;17.30;99.90;;;;;;5071858;28;20047;-68
2022/09/16 12:56:18;;;;;;;12.13;2.15;;;17.60;99.90;;;;;;5078937;28;20070;-68
2022/09/16 12:59:11;;;;;;;11.60;2.17;;;17.50;99.90;;;;;;5027532;28;20059;-68
2022/09/16 13:02:17;;;;;;;14.40;2.05;;;17.20;99.90;;;;;;5074276;28;20052;-68
2022/09/16 13:04:46;;;;;;;12.90;2.30;;;16.60;99.90;;;;;;5060841;28;20083;-67
2022/09/16 13:07:31;;;;;;;10.32;2.63;;;16.30;99.90;;;;;;5077893;28;20111;-68
2022/09/16 13:10:19;;;;;;;12.88;2.95;;;16.40;99.90;;;;;;5088257;28;20076;-67
2022/09/16 13:12:53;;;;;;;11.85;2.50;;;16.60;99.90;;;;;;5060768;28;20130;-69
2022/09/16 13:15:35;;;;;;;10.73;2.33;;;16.80;99.90;;;;;;5071438;28;20048;-68
2022/09/16 13:18:17;;;;;;;12.60;2.50;;;17.00;99.90;;;;;;5058783;28;20137;-69